National Weather Service United States Department of Commerce

Turning Stormy in the Northwest

An active fall storm pattern developing in the Pacific Northwest this week will bring areas of heavy rain and high elevation snow. Northern California will benefit from rainfall this week that will aid firefighters given the recent large wildfires. Read More >

                                       ZTL Airspace Summary / KCSG TAF                    For ATC Planning Purposes Only
ZTL Airspace Summary:
High pressure will continue to dominate the airspace. Expect VFR conditions under mostly clear skies. However, valley fog and low clouds may develop in the southern Appalachians near daybreak. Surface winds will be northeast to east at 3-8kts, and frequently calm overnight. Flight Hazards: None expected.

Updated: 10/18/2017 7:38 PM
 

Columbus Terminal Aerodrome Forecast:
 
FTUS52 KCSG 182336
KCSG 182334Z 1900/1924 07004KT P6SM SKC

 

CSG METAR:  
SAUS70 KCSG 190000
METAR KCSG 182351Z 07005KT 10SM CLR 19/06 A3024 RMK AO2 SLP236 T01940061
     10244 20194 53006

Go to KCSG TAF TDA
Go to KCSG TAF TDA

CSG TRACON HAZARDS
CSG TRACON: SFC-12000
AVG CIG BASE WHERE REPORTED BLW 10000FT: NONE REPORTED
LOWEST REPORTED CIG: NONE REPORTED
LOWEST REPORTED FLIGHT CAT: VFR
METARS:
KAUO 182356Z AUTO 04004KT 10SM CLR 16/09 A3026 RMK AO2 SLPNO T01560089 10222 20156 53006
KLGC 182355Z AUTO 00000KT 10SM CLR 13/11 A3026 RMK AO2 T01250111 10230 20125
KLSF 182356Z AUTO 00000KT 10SM CLR 13/09 A3023 RMK AO2 SLP243 T01340091 10243 20134 53010
KEUF 182358Z AUTO 00000KT 10SM CLR 14/11 A3022 RMK AO2 SLP231 T01390106 10256 20139 53009
KCSG 182351Z 07005KT 10SM CLR 19/06 A3024 RMK AO2 SLP236 T01940061 10244 20194 53006
KPIM 182355Z AUTO 10004KT 10SM CLR 14/11 A3026 RMK AO2 T01400105 10234 20140 PWINO

CSG TRACON HAZARD

Forecast Surface Map Loop / Collaborative Convective Forecast Product / Vertical Wind Profile
Weather Map

 

AIRMETs & SIGMETS/ Southeast Radar loop / Satellite Image (click on image to enlarge)
Weather Map Southeast Radar Loop

satellite

2